createdAt,value
2022-08-14T00:00:18.676Z,6.25
2022-08-14T00:02:46.386Z,6.72
2022-08-14T00:05:16.011Z,5.95
2022-08-14T00:07:44.263Z,6.30
2022-08-14T00:10:51.290Z,6.38
2022-08-14T00:13:05.012Z,5.93
2022-08-14T00:15:43.387Z,6.88
2022-08-14T00:18:14.477Z,6.13
2022-08-14T00:20:57.364Z,7.90
2022-08-14T00:23:24.104Z,6.18
2022-08-14T00:25:53.820Z,6.28
2022-08-14T00:28:32.912Z,6.03
2022-08-14T00:31:01.902Z,7.75
2022-08-14T00:33:50.786Z,7.85
2022-08-14T00:36:36.865Z,6.47
2022-08-14T00:39:01.271Z,7.10
2022-08-14T00:41:31.856Z,7.28
2022-08-14T00:44:00.299Z,6.47
2022-08-14T00:46:32.283Z,7.00
2022-08-14T00:49:00.018Z,7.13
2022-08-14T00:51:34.440Z,7.55
2022-08-14T00:54:05.121Z,7.63
2022-08-14T00:56:44.294Z,7.43
2022-08-14T00:59:11.512Z,6.75
2022-08-14T01:01:42.607Z,7.55
2022-08-14T01:04:09.764Z,7.90
2022-08-14T01:06:55.600Z,7.38
2022-08-14T01:09:22.880Z,8.38
2022-08-14T01:12:02.798Z,7.80
2022-08-14T01:14:30.205Z,6.82
2022-08-14T01:16:56.548Z,7.32
2022-08-14T01:19:41.845Z,7.60
2022-08-14T01:22:12.675Z,7.65
2022-08-14T01:24:39.425Z,6.95
2022-08-14T01:27:07.306Z,6.80
2022-08-14T01:29:59.329Z,6.38
2022-08-14T01:32:24.104Z,7.35
2022-08-14T01:35:19.082Z,8.10
2022-08-14T01:40:11.123Z,7.95
2022-08-14T01:42:37.486Z,6.32
2022-08-14T01:45:11.757Z,7.63
2022-08-14T01:47:38.847Z,8.10
2022-08-14T01:50:06.502Z,8.20
2022-08-14T01:52:58.993Z,8.60
2022-08-14T01:55:21.603Z,8.43
2022-08-14T01:57:49.386Z,7.80
2022-08-14T02:00:29.413Z,7.65
2022-08-14T02:02:58.242Z,8.38
2022-08-14T02:05:34.940Z,9.52
2022-08-14T02:08:09.777Z,7.78
2022-08-14T02:10:46.081Z,8.32
2022-08-14T02:13:14.132Z,8.40
2022-08-14T02:15:43.524Z,8.77
2022-08-14T02:18:10.252Z,9.02
2022-08-14T02:20:38.514Z,8.45
2022-08-14T02:23:06.318Z,8.55
2022-08-14T02:25:34.778Z,9.38
2022-08-14T02:28:26.100Z,10.20
2022-08-14T02:30:48.177Z,8.88
2022-08-14T02:33:18.830Z,9.05
2022-08-14T02:35:52.835Z,9.30
2022-08-14T02:38:29.874Z,7.78
2022-08-14T02:40:57.996Z,8.50
2022-08-14T02:43:24.338Z,8.63
2022-08-14T02:46:03.323Z,8.90
2022-08-14T02:49:04.869Z,8.75
2022-08-14T02:51:18.044Z,10.60
2022-08-14T02:53:46.363Z,8.95
2022-08-14T02:56:30.770Z,8.23
2022-08-14T02:59:05.643Z,7.90
2022-08-14T03:01:50.084Z,9.10
2022-08-14T03:04:17.710Z,9.50
2022-08-14T03:06:58.169Z,8.32
2022-08-14T03:10:25.543Z,10.25
2022-08-14T03:12:30.842Z,9.32
2022-08-14T03:14:59.192Z,9.32
2022-08-14T03:17:26.873Z,8.65
2022-08-14T03:19:58.454Z,10.75
2022-08-14T03:22:27.811Z,9.38
2022-08-14T03:24:56.598Z,9.05
2022-08-14T03:27:23.293Z,9.57
2022-08-14T03:29:52.931Z,9.75
2022-08-14T03:32:20.311Z,10.25
2022-08-14T03:34:58.477Z,9.93
2022-08-14T03:37:51.400Z,10.82
2022-08-14T03:40:18.289Z,10.88
2022-08-14T03:42:45.306Z,9.07
2022-08-14T03:45:25.102Z,9.55
2022-08-14T03:48:01.890Z,11.93
2022-08-14T03:50:31.729Z,11.23
2022-08-14T03:53:02.683Z,12.38
2022-08-14T03:55:30.332Z,11.65
2022-08-14T03:57:57.107Z,12.23
2022-08-14T04:00:40.354Z,10.27
2022-08-14T04:03:09.080Z,10.50
2022-08-14T04:05:38.053Z,10.75
2022-08-14T04:08:29.314Z,10.63
2022-08-14T04:10:57.366Z,11.15
2022-08-14T04:13:24.326Z,10.13
2022-08-14T04:15:56.515Z,11.85
2022-08-14T04:18:29.793Z,10.68
2022-08-14T04:20:58.086Z,10.73
2022-08-14T04:23:29.464Z,11.07
2022-08-14T04:26:00.373Z,11.20
2022-08-14T04:29:08.826Z,11.05
2022-08-14T04:31:13.414Z,10.13
2022-08-14T04:33:42.071Z,10.30
2022-08-14T04:36:09.269Z,8.73
2022-08-14T04:39:00.967Z,11.63
2022-08-14T04:41:45.907Z,11.70
2022-08-14T04:44:13.570Z,10.50
2022-08-14T04:47:12.087Z,11.18
2022-08-14T04:49:56.679Z,10.93
2022-08-14T04:52:24.662Z,10.45
2022-08-14T04:54:51.337Z,10.63
2022-08-14T04:57:17.657Z,10.20
2022-08-14T04:59:45.655Z,11.02
2022-08-14T05:02:13.582Z,10.18
2022-08-14T05:04:45.212Z,11.02
2022-08-14T05:07:11.898Z,10.27
2022-08-14T05:09:38.916Z,11.63
2022-08-14T05:13:12.814Z,10.93
2022-08-14T05:15:00.743Z,10.90
2022-08-14T05:17:31.896Z,9.10
2022-08-14T05:21:04.953Z,10.20
2022-08-14T05:22:59.427Z,9.88
2022-08-14T05:25:25.958Z,9.50
2022-08-14T05:28:00.505Z,10.27
2022-08-14T05:30:27.042Z,9.77
2022-08-14T05:32:53.706Z,11.10
2022-08-14T05:35:20.631Z,11.90
2022-08-14T05:37:50.030Z,11.18
2022-08-14T05:40:16.714Z,11.00
2022-08-14T05:42:46.558Z,11.50
2022-08-14T05:45:20.004Z,10.85
2022-08-14T05:47:46.307Z,11.07
2022-08-14T05:50:19.004Z,12.15
2022-08-14T05:52:46.380Z,10.27
2022-08-14T05:55:13.044Z,10.95
2022-08-14T05:57:49.777Z,10.57
2022-08-14T06:00:25.015Z,11.00
2022-08-14T06:03:00.172Z,11.82
2022-08-14T06:05:28.604Z,11.25
2022-08-14T06:07:55.734Z,11.02
2022-08-14T06:10:24.222Z,10.20
2022-08-14T06:12:56.714Z,11.07
2022-08-14T06:15:27.627Z,11.90
2022-08-14T06:17:58.910Z,10.52
2022-08-14T06:22:52.277Z,10.20
2022-08-14T06:25:19.536Z,12.05
2022-08-14T06:27:46.954Z,12.25
2022-08-14T06:30:16.000Z,11.15
2022-08-14T06:32:42.732Z,10.15
2022-08-14T06:35:13.448Z,11.02
2022-08-14T06:37:48.905Z,11.15
2022-08-14T06:40:27.065Z,11.82
2022-08-14T06:43:00.329Z,12.05
2022-08-14T06:45:31.205Z,10.52
2022-08-14T06:47:58.851Z,9.82
2022-08-14T06:50:28.060Z,11.05
2022-08-14T06:55:26.462Z,10.25
2022-08-14T06:57:54.522Z,10.88
2022-08-14T07:00:26.635Z,9.48
2022-08-14T07:03:12.241Z,10.52
2022-08-14T07:05:58.224Z,9.48
2022-08-14T07:08:29.713Z,9.82
2022-08-14T07:11:00.040Z,9.57
2022-08-14T07:13:27.580Z,9.25
2022-08-14T07:15:56.473Z,9.35
2022-08-14T07:18:31.208Z,8.73
2022-08-14T07:20:58.605Z,9.85
2022-08-14T07:23:25.895Z,10.38
2022-08-14T07:25:53.667Z,8.32
2022-08-14T07:28:23.585Z,7.78
2022-08-14T07:30:51.936Z,7.40
2022-08-14T07:33:20.724Z,7.85
2022-08-14T07:35:58.326Z,7.53
2022-08-14T07:38:33.631Z,7.28
2022-08-14T07:41:10.762Z,7.75
2022-08-14T07:43:39.487Z,9.20
2022-08-14T07:46:06.582Z,8.73
2022-08-14T07:48:37.578Z,7.68
2022-08-14T07:51:03.890Z,8.98
2022-08-14T07:53:39.254Z,8.88
2022-08-14T07:58:38.838Z,8.52
2022-08-14T08:01:18.787Z,7.38
2022-08-14T08:03:49.647Z,7.07
2022-08-14T08:06:20.539Z,7.50
2022-08-14T08:08:47.648Z,7.78
2022-08-14T08:11:30.094Z,6.65
2022-08-14T08:14:03.217Z,7.05
2022-08-14T08:16:30.320Z,8.87
2022-08-14T08:19:02.974Z,6.20
2022-08-14T08:21:38.993Z,7.10
2022-08-14T08:24:10.456Z,7.03
2022-08-14T08:26:38.754Z,6.63
2022-08-14T08:29:06.191Z,6.90
2022-08-14T08:31:35.170Z,7.05
2022-08-14T08:34:04.426Z,6.35
2022-08-14T08:36:39.918Z,6.70
2022-08-14T08:39:14.599Z,5.40
2022-08-14T08:41:49.317Z,5.50
2022-08-14T08:44:32.267Z,6.82
2022-08-14T08:47:01.620Z,5.50
2022-08-14T08:49:48.266Z,4.55
2022-08-14T08:54:54.780Z,5.45
2022-08-14T08:57:21.426Z,4.25
2022-08-14T08:59:48.014Z,5.13
2022-08-14T09:02:26.036Z,4.90
2022-08-14T09:05:01.040Z,6.30
2022-08-14T09:07:27.415Z,5.07
2022-08-14T09:09:59.431Z,4.70
2022-08-14T09:12:31.718Z,5.63
2022-08-14T09:15:00.179Z,5.15
2022-08-14T09:17:26.740Z,4.22
2022-08-14T09:19:53.930Z,4.80
2022-08-14T09:22:33.330Z,5.38
2022-08-14T09:25:03.026Z,4.95
2022-08-14T09:27:29.328Z,5.07
2022-08-14T09:29:55.877Z,5.07
2022-08-14T09:32:59.263Z,5.30
2022-08-14T09:35:32.498Z,5.15
2022-08-14T09:38:00.742Z,5.15
2022-08-14T09:40:42.302Z,5.45
2022-08-14T09:43:30.145Z,5.45
2022-08-14T09:46:01.064Z,4.93
2022-08-14T09:48:30.808Z,4.63
2022-08-14T09:50:58.533Z,4.70
2022-08-14T09:54:13.540Z,5.13
2022-08-14T09:56:31.037Z,4.63
2022-08-14T09:58:59.099Z,5.53
2022-08-14T10:01:35.657Z,4.57
2022-08-14T10:04:06.270Z,4.82
2022-08-14T10:06:47.167Z,4.25
2022-08-14T10:09:16.896Z,4.85
2022-08-14T10:11:58.947Z,4.00
2022-08-14T10:14:36.039Z,4.20
2022-08-14T10:17:05.282Z,4.80
2022-08-14T10:19:35.804Z,4.88
2022-08-14T10:23:13.253Z,4.70
2022-08-14T10:24:57.324Z,3.97
2022-08-14T10:27:27.105Z,4.30
2022-08-14T10:30:01.688Z,4.38
2022-08-14T10:32:49.698Z,4.72
2022-08-14T10:35:16.055Z,4.75
2022-08-14T10:37:44.935Z,5.18
2022-08-14T10:40:38.137Z,4.47
2022-08-14T10:42:57.904Z,4.57
2022-08-14T10:45:25.565Z,4.90
2022-08-14T10:48:07.941Z,4.05
2022-08-14T10:50:38.566Z,3.83
2022-08-14T10:53:06.072Z,4.40
2022-08-14T10:55:45.283Z,4.68
2022-08-14T10:58:12.428Z,4.90
2022-08-14T11:00:46.928Z,4.00
2022-08-14T11:03:19.733Z,2.80
2022-08-14T11:05:55.721Z,5.25
2022-08-14T11:08:32.497Z,4.97
2022-08-14T11:11:00.581Z,4.07
2022-08-14T11:13:28.822Z,4.20
2022-08-14T11:15:57.452Z,4.00
2022-08-14T11:18:32.154Z,3.80
2022-08-14T11:21:06.514Z,3.53
2022-08-14T11:23:37.830Z,3.88
2022-08-14T11:26:07.076Z,4.90
2022-08-14T11:28:46.821Z,4.70
2022-08-14T11:31:15.597Z,4.53
2022-08-14T11:33:42.242Z,4.95
2022-08-14T11:36:17.267Z,4.90
2022-08-14T11:38:45.829Z,3.13
2022-08-14T11:41:13.035Z,3.92
2022-08-14T11:43:46.896Z,3.67
2022-08-14T11:46:30.451Z,3.67
2022-08-14T11:49:05.442Z,3.10
2022-08-14T11:54:03.553Z,3.15
2022-08-14T11:56:36.534Z,3.17
2022-08-14T11:59:03.838Z,3.00
2022-08-14T12:01:33.399Z,3.22
2022-08-14T12:04:21.624Z,3.33
2022-08-14T12:07:01.239Z,3.28
2022-08-14T12:11:54.191Z,2.53
2022-08-14T12:14:34.504Z,2.23
2022-08-14T12:17:06.498Z,3.30
2022-08-14T12:19:54.071Z,2.55
2022-08-14T12:22:32.210Z,2.60
2022-08-14T12:24:58.570Z,2.65
2022-08-14T12:27:59.059Z,2.90
2022-08-14T12:30:40.084Z,3.10
2022-08-14T12:33:31.322Z,3.03
2022-08-14T12:36:04.377Z,3.13
2022-08-14T12:38:43.718Z,6.05
2022-08-14T12:41:11.799Z,3.35
2022-08-14T12:43:51.437Z,3.72
2022-08-14T12:46:27.167Z,3.15
2022-08-14T12:48:55.175Z,2.17
2022-08-14T12:51:25.210Z,2.95
2022-08-14T12:53:54.899Z,3.13
2022-08-14T12:56:32.753Z,2.72
2022-08-14T12:59:01.035Z,3.20
2022-08-14T13:01:31.252Z,2.92
2022-08-14T13:04:10.119Z,3.53
2022-08-14T13:06:37.047Z,3.05
2022-08-14T13:09:04.774Z,3.10
2022-08-14T13:11:41.198Z,3.70
2022-08-14T13:14:17.486Z,3.75
2022-08-14T13:16:44.367Z,4.00
2022-08-14T13:19:17.186Z,3.80
2022-08-14T13:22:04.808Z,3.33
2022-08-14T13:24:33.450Z,3.80
2022-08-14T13:27:04.117Z,3.42
2022-08-14T13:29:33.860Z,3.50
2022-08-14T13:32:00.895Z,3.10
2022-08-14T13:34:28.410Z,3.60
2022-08-14T13:36:59.224Z,4.85
2022-08-14T13:39:31.418Z,4.00
2022-08-14T13:42:05.157Z,3.33
2022-08-14T13:44:35.050Z,4.20
2022-08-14T13:47:06.586Z,3.53
2022-08-14T13:49:37.481Z,4.03
2022-08-14T13:52:14.616Z,4.05
2022-08-14T13:54:55.575Z,3.73
2022-08-14T13:57:30.568Z,3.97
2022-08-14T14:00:00.757Z,3.17
2022-08-14T14:02:31.872Z,3.80
2022-08-14T14:05:00.712Z,3.05
2022-08-14T14:07:32.185Z,3.90
2022-08-14T14:10:06.242Z,3.60
2022-08-14T14:12:41.470Z,4.00
2022-08-14T14:15:09.609Z,3.42
2022-08-14T14:17:36.609Z,4.43
2022-08-14T14:20:07.419Z,3.42
2022-08-14T14:23:02.850Z,3.35
2022-08-14T14:25:25.982Z,3.00
2022-08-14T14:28:16.615Z,3.45
2022-08-14T14:30:54.125Z,3.55
2022-08-14T14:33:47.019Z,3.83
2022-08-14T14:36:11.527Z,2.88
2022-08-14T14:38:42.134Z,3.22
2022-08-14T14:41:09.576Z,3.00
2022-08-14T14:43:44.759Z,3.20
2022-08-14T14:46:13.272Z,3.88
2022-08-14T14:48:54.168Z,2.97
2022-08-14T14:51:22.073Z,3.53
2022-08-14T14:53:48.787Z,4.45
2022-08-14T14:56:49.919Z,3.35
2022-08-14T14:59:01.842Z,4.75
2022-08-14T15:01:28.780Z,4.15
2022-08-14T15:03:55.389Z,5.53
2022-08-14T15:06:30.232Z,3.90
2022-08-14T15:08:59.517Z,4.43
2022-08-14T15:11:30.475Z,5.30
2022-08-14T15:13:58.508Z,4.97
2022-08-14T15:16:26.885Z,4.65
2022-08-14T15:18:53.831Z,4.63
2022-08-14T15:21:20.174Z,5.78
2022-08-14T15:23:48.949Z,4.95
2022-08-14T15:26:30.918Z,4.32
2022-08-14T15:29:02.889Z,5.13
2022-08-14T15:31:32.732Z,6.38
2022-08-14T15:34:45.698Z,4.28
2022-08-14T15:37:02.195Z,5.55
2022-08-14T15:39:34.029Z,4.90
2022-08-14T15:42:02.744Z,5.10
2022-08-14T15:44:34.233Z,4.07
2022-08-14T15:47:00.842Z,4.25
2022-08-14T15:49:34.792Z,4.45
2022-08-14T15:52:03.412Z,4.40
2022-08-14T15:54:31.199Z,4.57
2022-08-14T15:57:02.591Z,5.37
2022-08-14T15:59:49.590Z,4.22
2022-08-14T16:02:16.083Z,5.10
2022-08-14T16:07:11.806Z,4.45
2022-08-14T16:09:39.003Z,3.95
2022-08-14T16:12:07.352Z,4.20
2022-08-14T16:14:40.573Z,4.25
2022-08-14T16:17:10.089Z,4.07
2022-08-14T16:19:39.858Z,3.97
2022-08-14T16:22:59.439Z,4.18
2022-08-14T16:25:00.358Z,3.25
2022-08-14T16:27:38.929Z,4.13
2022-08-14T16:32:56.894Z,4.13
2022-08-14T16:35:42.311Z,4.18
2022-08-14T16:38:19.294Z,4.65
2022-08-14T16:40:24.433Z,5.03
2022-08-14T16:41:17.104Z,4.30
2022-08-14T16:43:47.266Z,4.35
2022-08-14T16:46:15.415Z,3.90
2022-08-14T16:48:55.061Z,2.88
2022-08-14T16:51:23.821Z,3.92
2022-08-14T16:53:50.284Z,3.80
2022-08-14T16:56:23.921Z,4.50
2022-08-14T16:59:02.769Z,4.20
2022-08-14T17:01:31.726Z,4.20
2022-08-14T17:04:01.319Z,4.72
2022-08-14T17:06:42.955Z,4.15
2022-08-14T17:09:29.917Z,5.75
2022-08-14T17:11:58.865Z,4.32
2022-08-14T17:14:26.715Z,4.18
2022-08-14T17:16:57.367Z,5.00
2022-08-14T17:19:24.313Z,4.65
2022-08-14T17:21:51.946Z,5.35
2022-08-14T17:24:58.161Z,5.25
2022-08-14T17:27:06.457Z,5.13
2022-08-14T17:29:34.989Z,5.72
2022-08-14T17:32:28.384Z,5.10
2022-08-14T17:35:10.164Z,4.35
2022-08-14T17:37:44.930Z,5.15
2022-08-14T17:40:19.294Z,6.53
2022-08-14T17:42:51.330Z,5.50
2022-08-14T17:45:27.037Z,5.18
2022-08-14T17:47:55.872Z,4.82
2022-08-14T17:50:59.481Z,4.65
2022-08-14T17:53:27.283Z,5.45
2022-08-14T17:56:01.838Z,4.53
2022-08-14T17:58:30.296Z,4.30
2022-08-14T18:01:05.552Z,4.70
2022-08-14T18:03:49.955Z,5.18
2022-08-14T18:06:39.499Z,5.35
2022-08-14T18:11:45.798Z,5.55
2022-08-14T18:14:31.499Z,4.70
2022-08-14T18:17:00.943Z,5.28
2022-08-14T18:19:28.066Z,6.40
2022-08-14T18:21:58.797Z,7.38
2022-08-14T18:24:29.833Z,6.75
2022-08-14T18:27:11.746Z,7.05
2022-08-14T18:29:55.258Z,6.55
2022-08-14T18:32:27.835Z,6.63
2022-08-14T18:35:01.434Z,6.10
2022-08-14T18:37:30.852Z,6.50
2022-08-14T18:42:33.120Z,6.68
2022-08-14T18:45:01.502Z,7.40
2022-08-14T18:47:32.665Z,7.13
2022-08-14T18:50:27.143Z,7.20
2022-08-14T18:53:03.892Z,7.20
2022-08-14T18:55:33.263Z,7.55
2022-08-14T19:00:52.619Z,7.25
2022-08-14T19:03:18.894Z,7.57
2022-08-14T19:05:49.029Z,8.10
2022-08-14T19:08:27.053Z,7.53
2022-08-14T19:11:03.867Z,7.18
2022-08-14T19:13:48.467Z,7.57
2022-08-14T19:16:23.263Z,7.70
2022-08-14T19:19:00.378Z,9.18
2022-08-14T19:21:40.892Z,8.07
2022-08-14T19:24:29.663Z,7.90
2022-08-14T19:29:37.828Z,8.45
2022-08-14T19:32:26.081Z,8.30
2022-08-14T19:34:54.151Z,7.38
2022-08-14T19:37:54.179Z,7.40
2022-08-14T19:40:33.826Z,6.65
2022-08-14T19:43:01.126Z,8.40
2022-08-14T19:45:27.867Z,7.85
2022-08-14T19:47:54.263Z,7.70
2022-08-14T19:50:38.912Z,7.68
2022-08-14T19:53:17.186Z,7.38
2022-08-14T19:55:54.356Z,7.03
2022-08-14T19:58:28.143Z,8.93
2022-08-14T20:00:57.030Z,7.53
2022-08-14T20:03:24.876Z,7.40
2022-08-14T20:06:00.681Z,7.22
2022-08-14T20:09:06.092Z,7.57
2022-08-14T20:11:44.666Z,7.45
2022-08-14T20:14:29.362Z,7.95
2022-08-14T20:17:03.172Z,8.05
2022-08-14T20:19:38.128Z,8.18
2022-08-14T20:22:36.537Z,10.18
2022-08-14T20:24:55.344Z,8.13
2022-08-14T20:27:38.283Z,8.32
2022-08-14T20:30:29.930Z,9.50
2022-08-14T20:32:55.074Z,8.55
2022-08-14T20:35:35.367Z,8.68
2022-08-14T20:38:31.082Z,8.38
2022-08-14T20:40:52.559Z,7.88
2022-08-14T20:43:37.527Z,9.23
2022-08-14T20:46:38.481Z,10.23
2022-08-14T20:49:07.143Z,9.30
2022-08-14T20:51:37.823Z,9.50
2022-08-14T20:54:11.684Z,10.52
2022-08-14T20:56:40.455Z,9.30
2022-08-14T20:59:17.435Z,9.93
2022-08-14T21:01:45.638Z,10.10
2022-08-14T21:04:23.676Z,9.70
2022-08-14T21:07:25.173Z,10.13
2022-08-14T21:10:06.540Z,10.73
2022-08-14T21:12:35.976Z,12.60
2022-08-14T21:15:04.985Z,10.68
2022-08-14T21:17:37.383Z,9.55
2022-08-14T21:20:25.953Z,10.68
2022-08-14T21:22:51.163Z,9.15
2022-08-14T21:25:20.782Z,11.38
2022-08-14T21:27:56.802Z,10.70
2022-08-14T21:30:47.087Z,11.13
2022-08-14T21:33:10.500Z,11.18
2022-08-14T21:35:44.371Z,9.97
2022-08-14T21:38:18.182Z,10.48
2022-08-14T21:40:46.969Z,9.38
2022-08-14T21:43:19.310Z,10.17
2022-08-14T21:45:53.483Z,10.23
2022-08-14T21:48:21.356Z,10.30
2022-08-14T21:51:01.136Z,10.25
2022-08-14T21:53:59.069Z,9.68
2022-08-14T21:56:38.448Z,9.85
2022-08-14T21:59:09.922Z,9.20
2022-08-14T22:02:00.979Z,9.27
2022-08-14T22:04:32.980Z,9.23
2022-08-14T22:07:02.492Z,10.77
2022-08-14T22:09:32.474Z,10.15
2022-08-14T22:12:06.751Z,10.27
2022-08-14T22:14:33.574Z,10.45
2022-08-14T22:17:13.008Z,9.35
2022-08-14T22:19:47.364Z,9.45
2022-08-14T22:22:21.924Z,9.18
2022-08-14T22:24:53.384Z,9.45
2022-08-14T22:27:21.269Z,9.20
2022-08-14T22:29:54.832Z,8.90
2022-08-14T22:32:24.155Z,8.77
2022-08-14T22:35:02.290Z,8.88
2022-08-14T22:37:28.659Z,8.77
2022-08-14T22:40:48.337Z,9.63
2022-08-14T22:42:42.236Z,9.95
2022-08-14T22:45:26.594Z,8.77
2022-08-14T22:48:03.388Z,9.50
2022-08-14T22:50:33.645Z,8.88
2022-08-14T22:53:00.222Z,8.50
2022-08-14T22:55:27.363Z,8.63
2022-08-14T22:57:53.657Z,9.15
2022-08-14T23:00:25.648Z,9.20
2022-08-14T23:02:58.096Z,9.45
2022-08-14T23:05:38.808Z,9.25
2022-08-14T23:08:57.826Z,9.77
2022-08-14T23:10:52.216Z,9.85
2022-08-14T23:13:18.608Z,9.27
2022-08-14T23:15:46.361Z,9.02
2022-08-14T23:18:13.340Z,9.32
2022-08-14T23:20:42.332Z,9.23
2022-08-14T23:23:22.894Z,9.93
2022-08-14T23:25:58.267Z,9.60
2022-08-14T23:28:34.761Z,8.93
2022-08-14T23:31:34.716Z,10.18
2022-08-14T23:34:06.603Z,9.40
2022-08-14T23:36:37.375Z,9.95
2022-08-14T23:39:19.607Z,9.82
2022-08-14T23:41:52.649Z,9.57
2022-08-14T23:44:21.501Z,9.45
2022-08-14T23:46:49.212Z,9.85
2022-08-14T23:49:21.334Z,9.75
2022-08-14T23:51:48.930Z,10.32
2022-08-14T23:54:48.974Z,9.40
2022-08-14T23:57:16.274Z,8.25
2022-08-14T23:59:54.477Z,8.60
